sensor_id;sensor_type;location;lat;lon;timestamp;temperature;humidity
12847;DHT22;6492;48.128;8.320;2022-08-21T00:07:51;10.40;78.20
12847;DHT22;6492;48.128;8.320;2022-08-21T00:26:26;9.80;77.40
12847;DHT22;6492;48.128;8.320;2022-08-21T01:52:58;9.50;78.40
12847;DHT22;6492;48.128;8.320;2022-08-21T02:01:24;9.50;78.50
12847;DHT22;6492;48.128;8.320;2022-08-21T02:05:40;9.70;80.30
12847;DHT22;6492;48.128;8.320;2022-08-21T02:14:08;9.60;78.60
12847;DHT22;6492;48.128;8.320;2022-08-21T02:27:24;9.50;78.60
12847;DHT22;6492;48.128;8.320;2022-08-21T02:45:32;9.30;78.40
12847;DHT22;6492;48.128;8.320;2022-08-21T02:49:48;10.10;79.70
12847;DHT22;6492;48.128;8.320;2022-08-21T02:54:05;9.30;81.10
12847;DHT22;6492;48.128;8.320;2022-08-21T05:43:20;10.30;79.40
12847;DHT22;6492;48.128;8.320;2022-08-21T05:47:56;11.00;80.50
12847;DHT22;6492;48.128;8.320;2022-08-21T05:51:58;10.60;81.60
12847;DHT22;6492;48.128;8.320;2022-08-21T06:47:50;13.60;57.00
12847;DHT22;6492;48.128;8.320;2022-08-21T06:52:35;14.00;57.80
12847;DHT22;6492;48.128;8.320;2022-08-21T06:57:15;14.00;46.90
12847;DHT22;6492;48.128;8.320;2022-08-21T07:01:29;13.90;39.70
12847;DHT22;6492;48.128;8.320;2022-08-21T07:05:44;13.70;38.70
12847;DHT22;6492;48.128;8.320;2022-08-21T07:10:04;13.70;40.10
12847;DHT22;6492;48.128;8.320;2022-08-21T07:14:34;13.90;40.50
12847;DHT22;6492;48.128;8.320;2022-08-21T07:18:44;13.90;37.50
12847;DHT22;6492;48.128;8.320;2022-08-21T07:22:57;14.20;36.90
12847;DHT22;6492;48.128;8.320;2022-08-21T07:32:53;14.70;35.30
12847;DHT22;6492;48.128;8.320;2022-08-21T07:37:31;15.20;31.10
12847;DHT22;6492;48.128;8.320;2022-08-21T07:41:40;15.70;28.70
12847;DHT22;6492;48.128;8.320;2022-08-21T07:45:44;16.20;26.00
12847;DHT22;6492;48.128;8.320;2022-08-21T07:49:46;16.50;21.50
12847;DHT22;6492;48.128;8.320;2022-08-21T08:12:16;19.90;13.50
12847;DHT22;6492;48.128;8.320;2022-08-21T08:16:18;20.60;11.30
12847;DHT22;6492;48.128;8.320;2022-08-21T08:20:24;20.80;7.70
12847;DHT22;6492;48.128;8.320;2022-08-21T08:24:26;21.10;8.10
12847;DHT22;6492;48.128;8.320;2022-08-21T08:28:30;21.80;6.00
12847;DHT22;6492;48.128;8.320;2022-08-21T08:32:51;22.80;5.00
12847;DHT22;6492;48.128;8.320;2022-08-21T08:36:53;23.90;1.30
12847;DHT22;6492;48.128;8.320;2022-08-21T08:41:03;24.60;1.00
12847;DHT22;6492;48.128;8.320;2022-08-21T08:45:12;24.90;1.00
12847;DHT22;6492;48.128;8.320;2022-08-21T08:49:27;25.00;1.00
12847;DHT22;6492;48.128;8.320;2022-08-21T08:53:45;25.20;1.00
12847;DHT22;6492;48.128;8.320;2022-08-21T08:57:55;25.50;1.00
12847;DHT22;6492;48.128;8.320;2022-08-21T09:01:59;25.50;1.00
12847;DHT22;6492;48.128;8.320;2022-08-21T09:06:06;25.90;1.00
12847;DHT22;6492;48.128;8.320;2022-08-21T09:10:16;26.10;1.00
12847;DHT22;6492;48.128;8.320;2022-08-21T09:14:26;25.40;1.00
12847;DHT22;6492;48.128;8.320;2022-08-21T09:18:38;24.70;1.00
12847;DHT22;6492;48.128;8.320;2022-08-21T09:22:57;24.20;1.00
12847;DHT22;6492;48.128;8.320;2022-08-21T09:27:06;24.00;1.00
12847;DHT22;6492;48.128;8.320;2022-08-21T09:31:14;23.60;1.00
12847;DHT22;6492;48.128;8.320;2022-08-21T09:35:21;23.80;1.00
12847;DHT22;6492;48.128;8.320;2022-08-21T09:39:25;24.50;1.00
12847;DHT22;6492;48.128;8.320;2022-08-21T09:43:28;24.90;1.00
12847;DHT22;6492;48.128;8.320;2022-08-21T09:47:30;25.30;1.00
12847;DHT22;6492;48.128;8.320;2022-08-21T09:51:35;25.20;1.00
12847;DHT22;6492;48.128;8.320;2022-08-21T09:55:46;24.80;1.00
12847;DHT22;6492;48.128;8.320;2022-08-21T10:00:18;25.20;1.00
12847;DHT22;6492;48.128;8.320;2022-08-21T10:04:23;25.80;1.00
12847;DHT22;6492;48.128;8.320;2022-08-21T10:08:28;26.40;1.00
12847;DHT22;6492;48.128;8.320;2022-08-21T10:12:37;26.30;1.00
12847;DHT22;6492;48.128;8.320;2022-08-21T10:16:51;26.70;1.00
12847;DHT22;6492;48.128;8.320;2022-08-21T10:21:02;27.20;1.00
12847;DHT22;6492;48.128;8.320;2022-08-21T10:25:14;27.30;1.00
12847;DHT22;6492;48.128;8.320;2022-08-21T10:29:31;27.20;1.00
12847;DHT22;6492;48.128;8.320;2022-08-21T10:33:44;27.00;1.00
12847;DHT22;6492;48.128;8.320;2022-08-21T10:38:05;26.60;1.00
12847;DHT22;6492;48.128;8.320;2022-08-21T10:42:20;26.40;1.00
12847;DHT22;6492;48.128;8.320;2022-08-21T10:46:36;26.00;1.00
12847;DHT22;6492;48.128;8.320;2022-08-21T10:50:44;25.80;1.00
12847;DHT22;6492;48.128;8.320;2022-08-21T10:55:02;26.10;1.00
12847;DHT22;6492;48.128;8.320;2022-08-21T10:59:20;27.00;1.00
12847;DHT22;6492;48.128;8.320;2022-08-21T11:03:32;28.00;1.00
12847;DHT22;6492;48.128;8.320;2022-08-21T11:07:46;28.50;1.00
12847;DHT22;6492;48.128;8.320;2022-08-21T11:11:54;28.60;1.00
12847;DHT22;6492;48.128;8.320;2022-08-21T11:16:03;28.80;1.00
12847;DHT22;6492;48.128;8.320;2022-08-21T11:20:42;29.10;1.00
12847;DHT22;6492;48.128;8.320;2022-08-21T11:24:49;29.80;1.00
12847;DHT22;6492;48.128;8.320;2022-08-21T11:28:55;30.70;1.00
12847;DHT22;6492;48.128;8.320;2022-08-21T11:33:30;30.20;1.00
12847;DHT22;6492;48.128;8.320;2022-08-21T11:37:45;30.20;1.00
12847;DHT22;6492;48.128;8.320;2022-08-21T11:42:01;30.50;1.00
12847;DHT22;6492;48.128;8.320;2022-08-21T11:46:11;30.80;1.00
12847;DHT22;6492;48.128;8.320;2022-08-21T11:50:17;30.90;1.00
12847;DHT22;6492;48.128;8.320;2022-08-21T11:54:26;31.00;1.00
12847;DHT22;6492;48.128;8.320;2022-08-21T11:58:32;31.10;1.00
12847;DHT22;6492;48.128;8.320;2022-08-21T12:02:41;30.80;1.00
12847;DHT22;6492;48.128;8.320;2022-08-21T12:06:45;29.90;1.00
12847;DHT22;6492;48.128;8.320;2022-08-21T12:11:00;29.30;1.00
12847;DHT22;6492;48.128;8.320;2022-08-21T12:15:23;29.10;1.00
12847;DHT22;6492;48.128;8.320;2022-08-21T12:19:31;29.90;1.00
12847;DHT22;6492;48.128;8.320;2022-08-21T12:23:44;30.30;1.00
12847;DHT22;6492;48.128;8.320;2022-08-21T12:27:50;29.10;1.00
12847;DHT22;6492;48.128;8.320;2022-08-21T12:31:58;28.00;1.00
12847;DHT22;6492;48.128;8.320;2022-08-21T12:36:07;27.60;1.00
12847;DHT22;6492;48.128;8.320;2022-08-21T12:40:18;28.40;1.00
12847;DHT22;6492;48.128;8.320;2022-08-21T12:44:24;29.00;1.00
12847;DHT22;6492;48.128;8.320;2022-08-21T12:48:31;29.60;1.00
12847;DHT22;6492;48.128;8.320;2022-08-21T12:52:39;30.10;1.00
12847;DHT22;6492;48.128;8.320;2022-08-21T12:56:43;30.90;1.00
12847;DHT22;6492;48.128;8.320;2022-08-21T13:01:02;30.80;1.00
12847;DHT22;6492;48.128;8.320;2022-08-21T13:05:29;30.10;1.00
12847;DHT22;6492;48.128;8.320;2022-08-21T13:09:32;28.70;1.00
12847;DHT22;6492;48.128;8.320;2022-08-21T13:13:35;27.80;1.00
12847;DHT22;6492;48.128;8.320;2022-08-21T13:17:41;26.90;1.00
12847;DHT22;6492;48.128;8.320;2022-08-21T13:21:44;26.40;1.00
12847;DHT22;6492;48.128;8.320;2022-08-21T13:25:47;26.40;1.00
12847;DHT22;6492;48.128;8.320;2022-08-21T13:30:01;27.60;1.00
12847;DHT22;6492;48.128;8.320;2022-08-21T13:34:04;28.10;1.00
12847;DHT22;6492;48.128;8.320;2022-08-21T13:38:08;27.80;1.00
12847;DHT22;6492;48.128;8.320;2022-08-21T13:42:11;27.40;1.00
12847;DHT22;6492;48.128;8.320;2022-08-21T13:46:15;26.80;1.00
12847;DHT22;6492;48.128;8.320;2022-08-21T13:50:20;26.10;1.00
12847;DHT22;6492;48.128;8.320;2022-08-21T13:54:25;25.50;1.00
12847;DHT22;6492;48.128;8.320;2022-08-21T13:58:29;25.20;1.00
12847;DHT22;6492;48.128;8.320;2022-08-21T14:02:39;25.60;1.00
12847;DHT22;6492;48.128;8.320;2022-08-21T14:06:43;26.40;1.00
12847;DHT22;6492;48.128;8.320;2022-08-21T14:10:47;27.60;1.00
12847;DHT22;6492;48.128;8.320;2022-08-21T14:14:51;28.60;1.00
12847;DHT22;6492;48.128;8.320;2022-08-21T14:19:11;29.00;1.00
12847;DHT22;6492;48.128;8.320;2022-08-21T14:23:24;29.50;1.00
12847;DHT22;6492;48.128;8.320;2022-08-21T14:27:27;29.70;1.00
12847;DHT22;6492;48.128;8.320;2022-08-21T14:31:31;28.90;1.00
12847;DHT22;6492;48.128;8.320;2022-08-21T14:35:36;27.90;1.00
12847;DHT22;6492;48.128;8.320;2022-08-21T14:39:38;26.80;1.00
12847;DHT22;6492;48.128;8.320;2022-08-21T14:43:40;25.80;1.00
12847;DHT22;6492;48.128;8.320;2022-08-21T14:47:42;24.90;1.00
12847;DHT22;6492;48.128;8.320;2022-08-21T14:51:45;24.20;1.00
12847;DHT22;6492;48.128;8.320;2022-08-21T14:55:47;23.70;1.00
12847;DHT22;6492;48.128;8.320;2022-08-21T15:00:09;23.30;1.00
12847;DHT22;6492;48.128;8.320;2022-08-21T15:04:11;22.90;1.00
12847;DHT22;6492;48.128;8.320;2022-08-21T15:08:14;22.90;1.00
12847;DHT22;6492;48.128;8.320;2022-08-21T15:12:16;23.60;1.00
12847;DHT22;6492;48.128;8.320;2022-08-21T15:16:18;24.70;1.00
12847;DHT22;6492;48.128;8.320;2022-08-21T15:20:20;25.80;1.00
12847;DHT22;6492;48.128;8.320;2022-08-21T15:24:23;26.70;1.00
12847;DHT22;6492;48.128;8.320;2022-08-21T15:28:26;27.40;1.00
12847;DHT22;6492;48.128;8.320;2022-08-21T15:32:29;28.00;1.00
12847;DHT22;6492;48.128;8.320;2022-08-21T15:36:31;28.30;1.00
12847;DHT22;6492;48.128;8.320;2022-08-21T15:40:36;27.70;1.00
12847;DHT22;6492;48.128;8.320;2022-08-21T15:44:39;26.90;1.00
12847;DHT22;6492;48.128;8.320;2022-08-21T15:48:44;26.00;1.00
12847;DHT22;6492;48.128;8.320;2022-08-21T15:52:46;25.20;1.00
12847;DHT22;6492;48.128;8.320;2022-08-21T15:56:50;24.40;1.00
12847;DHT22;6492;48.128;8.320;2022-08-21T16:00:52;24.20;1.00
12847;DHT22;6492;48.128;8.320;2022-08-21T16:04:54;24.80;1.00
12847;DHT22;6492;48.128;8.320;2022-08-21T16:08:56;25.60;1.00
12847;DHT22;6492;48.128;8.320;2022-08-21T16:13:02;26.40;1.00
12847;DHT22;6492;48.128;8.320;2022-08-21T16:17:05;27.20;1.00
12847;DHT22;6492;48.128;8.320;2022-08-21T16:21:08;27.50;1.00
12847;DHT22;6492;48.128;8.320;2022-08-21T16:25:10;27.80;1.00
12847;DHT22;6492;48.128;8.320;2022-08-21T16:29:14;27.80;1.00
12847;DHT22;6492;48.128;8.320;2022-08-21T16:33:21;27.80;1.00
12847;DHT22;6492;48.128;8.320;2022-08-21T16:37:23;27.80;1.00
12847;DHT22;6492;48.128;8.320;2022-08-21T16:41:27;27.60;1.00
12847;DHT22;6492;48.128;8.320;2022-08-21T16:45:47;27.50;1.00
12847;DHT22;6492;48.128;8.320;2022-08-21T16:49:49;27.20;1.00
12847;DHT22;6492;48.128;8.320;2022-08-21T16:53:51;27.10;1.00
12847;DHT22;6492;48.128;8.320;2022-08-21T16:57:53;27.10;1.00
12847;DHT22;6492;48.128;8.320;2022-08-21T17:01:56;26.80;1.00
12847;DHT22;6492;48.128;8.320;2022-08-21T17:05:58;27.10;1.00
12847;DHT22;6492;48.128;8.320;2022-08-21T17:10:00;26.60;1.00
12847;DHT22;6492;48.128;8.320;2022-08-21T17:14:04;26.30;1.00
12847;DHT22;6492;48.128;8.320;2022-08-21T17:18:10;26.00;1.00
12847;DHT22;6492;48.128;8.320;2022-08-21T17:22:12;25.30;1.00
12847;DHT22;6492;48.128;8.320;2022-08-21T17:26:15;24.60;1.00
12847;DHT22;6492;48.128;8.320;2022-08-21T17:30:19;23.90;1.00
12847;DHT22;6492;48.128;8.320;2022-08-21T17:34:23;23.30;1.00
12847;DHT22;6492;48.128;8.320;2022-08-21T17:38:25;22.80;1.00
12847;DHT22;6492;48.128;8.320;2022-08-21T17:42:27;22.30;1.00
12847;DHT22;6492;48.128;8.320;2022-08-21T17:46:29;21.80;1.00
12847;DHT22;6492;48.128;8.320;2022-08-21T17:50:33;21.30;1.00
12847;DHT22;6492;48.128;8.320;2022-08-21T17:54:36;20.90;1.00
12847;DHT22;6492;48.128;8.320;2022-08-21T20:25:12;14.00;21.10
12847;DHT22;6492;48.128;8.320;2022-08-21T20:30:13;14.00;22.20
12847;DHT22;6492;48.128;8.320;2022-08-21T20:35:10;13.80;23.60
12847;DHT22;6492;48.128;8.320;2022-08-21T21:28:06;13.00;26.50
12847;DHT22;6492;48.128;8.320;2022-08-21T21:37:28;13.20;28.90
